sensor_id;sensor_type;location;lat;lon;timestamp;pressure;altitude;pressure_sealevel;temperature;humidity
47897;BME280;39629;51.400;5.494;2022-12-29T00:04:11;99927.31;;;9.45;100.00
47897;BME280;39629;51.400;5.494;2022-12-29T00:09:16;99946.66;;;9.39;100.00
47897;BME280;39629;51.400;5.494;2022-12-29T00:14:18;99916.84;;;9.43;100.00
47897;BME280;39629;51.400;5.494;2022-12-29T00:19:48;99907.94;;;9.53;100.00
47897;BME280;39629;51.400;5.494;2022-12-29T00:25:10;99902.56;;;9.63;100.00
47897;BME280;39629;51.400;5.494;2022-12-29T00:30:30;99889.34;;;9.67;100.00
47897;BME280;39629;51.400;5.494;2022-12-29T00:35:53;99892.84;;;9.69;100.00
47897;BME280;39629;51.400;5.494;2022-12-29T00:40:57;99881.19;;;9.87;100.00
47897;BME280;39629;51.400;5.494;2022-12-29T00:46:16;99863.75;;;9.83;100.00
47897;BME280;39629;51.400;5.494;2022-12-29T00:51:17;99869.03;;;9.80;100.00
47897;BME280;39629;51.400;5.494;2022-12-29T00:56:20;99867.34;;;9.76;100.00
47897;BME280;39629;51.400;5.494;2022-12-29T01:01:22;99865.56;;;9.78;100.00
47897;BME280;39629;51.400;5.494;2022-12-29T01:06:24;99850.75;;;9.73;100.00
47897;BME280;39629;51.400;5.494;2022-12-29T01:11:27;99837.22;;;9.99;100.00
47897;BME280;39629;51.400;5.494;2022-12-29T01:16:28;99837.34;;;9.89;100.00
47897;BME280;39629;51.400;5.494;2022-12-29T01:21:30;99852.97;;;9.99;100.00
47897;BME280;39629;51.400;5.494;2022-12-29T01:26:33;99853.81;;;10.02;100.00
47897;BME280;39629;51.400;5.494;2022-12-29T01:31:35;99843.28;;;10.02;100.00
47897;BME280;39629;51.400;5.494;2022-12-29T01:36:37;99841.38;;;10.12;100.00
47897;BME280;39629;51.400;5.494;2022-12-29T01:41:40;99844.34;;;9.91;100.00
47897;BME280;39629;51.400;5.494;2022-12-29T01:46:46;99825.75;;;10.03;100.00
47897;BME280;39629;51.400;5.494;2022-12-29T01:51:51;99834.41;;;10.10;100.00
47897;BME280;39629;51.400;5.494;2022-12-29T01:56:57;99823.38;;;10.39;100.00
47897;BME280;39629;51.400;5.494;2022-12-29T02:02:01;99840.28;;;10.24;100.00
47897;BME280;39629;51.400;5.494;2022-12-29T02:07:05;99844.53;;;10.31;100.00
47897;BME280;39629;51.400;5.494;2022-12-29T02:12:11;99846.19;;;10.38;100.00
47897;BME280;39629;51.400;5.494;2022-12-29T02:17:17;99844.41;;;10.39;100.00
47897;BME280;39629;51.400;5.494;2022-12-29T02:22:27;99845.63;;;10.19;100.00
47897;BME280;39629;51.400;5.494;2022-12-29T02:27:48;99838.56;;;10.21;100.00
47897;BME280;39629;51.400;5.494;2022-12-29T02:32:59;99829.06;;;10.14;100.00
47897;BME280;39629;51.400;5.494;2022-12-29T02:38:18;99828.97;;;10.20;100.00
47897;BME280;39629;51.400;5.494;2022-12-29T02:43:24;99825.34;;;10.26;100.00
47897;BME280;39629;51.400;5.494;2022-12-29T02:48:31;99811.56;;;10.12;100.00
47897;BME280;39629;51.400;5.494;2022-12-29T02:53:36;99810.78;;;10.08;100.00
47897;BME280;39629;51.400;5.494;2022-12-29T02:58:55;99804.59;;;10.11;100.00
47897;BME280;39629;51.400;5.494;2022-12-29T03:04:15;99791.63;;;10.00;100.00
47897;BME280;39629;51.400;5.494;2022-12-29T03:09:26;99800.53;;;9.93;100.00
47897;BME280;39629;51.400;5.494;2022-12-29T03:14:33;99807.56;;;9.91;100.00
47897;BME280;39629;51.400;5.494;2022-12-29T03:20:02;99794.75;;;9.70;100.00
47897;BME280;39629;51.400;5.494;2022-12-29T03:25:08;99778.28;;;9.59;100.00
47897;BME280;39629;51.400;5.494;2022-12-29T03:30:12;99799.56;;;9.42;100.00
47897;BME280;39629;51.400;5.494;2022-12-29T03:35:17;99785.63;;;9.39;100.00
47897;BME280;39629;51.400;5.494;2022-12-29T03:40:21;99791.91;;;9.27;100.00
47897;BME280;39629;51.400;5.494;2022-12-29T03:45:25;99793.59;;;9.31;100.00
47897;BME280;39629;51.400;5.494;2022-12-29T03:50:28;99777.84;;;9.31;100.00
47897;BME280;39629;51.400;5.494;2022-12-29T03:55:30;99786.00;;;9.12;100.00
47897;BME280;39629;51.400;5.494;2022-12-29T04:00:32;99800.75;;;9.19;100.00
47897;BME280;39629;51.400;5.494;2022-12-29T04:05:35;99822.66;;;9.18;100.00
47897;BME280;39629;51.400;5.494;2022-12-29T04:10:37;99821.97;;;9.04;100.00
47897;BME280;39629;51.400;5.494;2022-12-29T04:15:40;99816.97;;;8.81;100.00
47897;BME280;39629;51.400;5.494;2022-12-29T04:20:45;99828.50;;;8.69;100.00
47897;BME280;39629;51.400;5.494;2022-12-29T04:26:05;99831.09;;;8.71;100.00
47897;BME280;39629;51.400;5.494;2022-12-29T04:31:09;99839.03;;;8.63;100.00
47897;BME280;39629;51.400;5.494;2022-12-29T04:36:16;99829.41;;;8.63;100.00
47897;BME280;39629;51.400;5.494;2022-12-29T04:41:17;99835.34;;;8.79;100.00
47897;BME280;39629;51.400;5.494;2022-12-29T04:46:19;99850.41;;;8.62;100.00
47897;BME280;39629;51.400;5.494;2022-12-29T04:51:43;99860.94;;;8.59;100.00
47897;BME280;39629;51.400;5.494;2022-12-29T04:56:46;99854.88;;;8.52;100.00
47897;BME280;39629;51.400;5.494;2022-12-29T05:01:50;99868.94;;;8.45;100.00
47897;BME280;39629;51.400;5.494;2022-12-29T05:06:53;99876.06;;;8.32;100.00
47897;BME280;39629;51.400;5.494;2022-12-29T05:11:55;99886.53;;;8.32;100.00
47897;BME280;39629;51.400;5.494;2022-12-29T05:16:57;99888.25;;;8.36;100.00
47897;BME280;39629;51.400;5.494;2022-12-29T05:22:01;99884.75;;;8.34;100.00
47897;BME280;39629;51.400;5.494;2022-12-29T05:27:05;99900.50;;;8.37;100.00
47897;BME280;39629;51.400;5.494;2022-12-29T05:32:25;99890.63;;;8.62;100.00
47897;BME280;39629;51.400;5.494;2022-12-29T05:37:29;99890.63;;;8.64;100.00
47897;BME280;39629;51.400;5.494;2022-12-29T05:42:31;99909.00;;;8.61;100.00
47897;BME280;39629;51.400;5.494;2022-12-29T05:47:48;99913.34;;;8.62;100.00
47897;BME280;39629;51.400;5.494;2022-12-29T05:53:09;99925.44;;;8.77;100.00
47897;BME280;39629;51.400;5.494;2022-12-29T05:58:12;99918.59;;;8.65;100.00
47897;BME280;39629;51.400;5.494;2022-12-29T06:03:15;99933.34;;;8.75;100.00
47897;BME280;39629;51.400;5.494;2022-12-29T06:08:18;99934.97;;;8.85;100.00
47897;BME280;39629;51.400;5.494;2022-12-29T06:13:21;99926.94;;;9.04;100.00
47897;BME280;39629;51.400;5.494;2022-12-29T06:18:24;99927.75;;;9.09;100.00
47897;BME280;39629;51.400;5.494;2022-12-29T06:23:27;99928.59;;;9.11;100.00
47897;BME280;39629;51.400;5.494;2022-12-29T06:28:29;99931.28;;;9.08;100.00
47897;BME280;39629;51.400;5.494;2022-12-29T06:33:31;99933.88;;;9.10;100.00
47897;BME280;39629;51.400;5.494;2022-12-29T06:38:34;99937.34;;;9.12;100.00
47897;BME280;39629;51.400;5.494;2022-12-29T06:43:36;99929.44;;;9.13;100.00
47897;BME280;39629;51.400;5.494;2022-12-29T06:48:48;99926.91;;;9.07;100.00
47897;BME280;39629;51.400;5.494;2022-12-29T06:53:51;99937.47;;;9.02;100.00
47897;BME280;39629;51.400;5.494;2022-12-29T06:58:53;99921.38;;;9.30;100.00
47897;BME280;39629;51.400;5.494;2022-12-29T07:03:54;99928.53;;;9.16;100.00
47897;BME280;39629;51.400;5.494;2022-12-29T07:08:57;99940.84;;;9.14;100.00
47897;BME280;39629;51.400;5.494;2022-12-29T07:13:59;99951.38;;;9.09;100.00
47897;BME280;39629;51.400;5.494;2022-12-29T07:19:01;99952.31;;;9.05;100.00
47897;BME280;39629;51.400;5.494;2022-12-29T07:24:04;99957.66;;;8.96;100.00
47897;BME280;39629;51.400;5.494;2022-12-29T07:29:06;99944.09;;;9.31;100.00
47897;BME280;39629;51.400;5.494;2022-12-29T07:34:08;99964.31;;;9.28;100.00
47897;BME280;39629;51.400;5.494;2022-12-29T07:39:11;99980.09;;;9.22;100.00
47897;BME280;39629;51.400;5.494;2022-12-29T07:44:12;99983.66;;;9.17;100.00
47897;BME280;39629;51.400;5.494;2022-12-29T07:49:33;99964.31;;;9.28;100.00
47897;BME280;39629;51.400;5.494;2022-12-29T07:54:36;99968.75;;;9.21;100.00
47897;BME280;39629;51.400;5.494;2022-12-29T07:59:37;99981.91;;;9.19;100.00
47897;BME280;39629;51.400;5.494;2022-12-29T08:04:39;99976.28;;;9.49;100.00
47897;BME280;39629;51.400;5.494;2022-12-29T08:09:42;99977.91;;;9.61;100.00
47897;BME280;39629;51.400;5.494;2022-12-29T08:14:43;99986.72;;;9.57;100.00
47897;BME280;39629;51.400;5.494;2022-12-29T08:19:45;99995.75;;;9.32;100.00
47897;BME280;39629;51.400;5.494;2022-12-29T08:24:48;100006.97;;;9.48;100.00
47897;BME280;39629;51.400;5.494;2022-12-29T08:29:50;100030.59;;;9.45;100.00
47897;BME280;39629;51.400;5.494;2022-12-29T08:34:51;100019.19;;;9.51;100.00
47897;BME280;39629;51.400;5.494;2022-12-29T08:39:54;100027.81;;;9.62;100.00
47897;BME280;39629;51.400;5.494;2022-12-29T08:44:56;100018.97;;;9.69;100.00
47897;BME280;39629;51.400;5.494;2022-12-29T08:49:58;100002.25;;;9.74;100.00
47897;BME280;39629;51.400;5.494;2022-12-29T08:55:01;100016.44;;;9.59;100.00
47897;BME280;39629;51.400;5.494;2022-12-29T09:00:04;100002.41;;;9.63;100.00
47897;BME280;39629;51.400;5.494;2022-12-29T09:05:07;100021.34;;;9.88;100.00
47897;BME280;39629;51.400;5.494;2022-12-29T09:10:11;100010.16;;;9.74;100.00
47897;BME280;39629;51.400;5.494;2022-12-29T09:15:12;100029.28;;;9.83;100.00
47897;BME280;39629;51.400;5.494;2022-12-29T09:20:18;100022.16;;;9.93;100.00
47897;BME280;39629;51.400;5.494;2022-12-29T09:25:22;100026.56;;;9.93;100.00
47897;BME280;39629;51.400;5.494;2022-12-29T09:30:24;100039.72;;;9.89;100.00
47897;BME280;39629;51.400;5.494;2022-12-29T09:35:26;100054.69;;;9.81;100.00
47897;BME280;39629;51.400;5.494;2022-12-29T09:40:30;100055.78;;;9.66;100.00
47897;BME280;39629;51.400;5.494;2022-12-29T09:45:38;100059.38;;;9.56;100.00
47897;BME280;39629;51.400;5.494;2022-12-29T09:50:44;100072.72;;;9.37;100.00
47897;BME280;39629;51.400;5.494;2022-12-29T09:55:52;100084.13;;;9.35;100.00
47897;BME280;39629;51.400;5.494;2022-12-29T10:00:58;100099.09;;;9.25;100.00
47897;BME280;39629;51.400;5.494;2022-12-29T10:06:06;100111.41;;;9.18;100.00
47897;BME280;39629;51.400;5.494;2022-12-29T10:11:20;100124.69;;;9.00;100.00
47897;BME280;39629;51.400;5.494;2022-12-29T10:16:31;100137.81;;;9.00;100.00
47897;BME280;39629;51.400;5.494;2022-12-29T10:21:47;100143.19;;;8.75;100.00
47897;BME280;39629;51.400;5.494;2022-12-29T10:26:56;100129.28;;;8.64;100.00
47897;BME280;39629;51.400;5.494;2022-12-29T10:32:00;100143.16;;;8.81;100.00
47897;BME280;39629;51.400;5.494;2022-12-29T10:37:09;100158.81;;;8.94;100.00
47897;BME280;39629;51.400;5.494;2022-12-29T10:42:18;100175.47;;;8.93;100.00
47897;BME280;39629;51.400;5.494;2022-12-29T10:47:25;100186.78;;;8.99;100.00
47897;BME280;39629;51.400;5.494;2022-12-29T10:52:29;100190.38;;;8.84;100.00
47897;BME280;39629;51.400;5.494;2022-12-29T10:57:36;100204.31;;;8.90;100.00
47897;BME280;39629;51.400;5.494;2022-12-29T11:03:04;100209.50;;;9.08;100.00
47897;BME280;39629;51.400;5.494;2022-12-29T11:08:14;100204.94;;;9.33;100.00
47897;BME280;39629;51.400;5.494;2022-12-29T11:13:24;100221.59;;;9.28;100.00
47897;BME280;39629;51.400;5.494;2022-12-29T11:18:31;100225.06;;;9.30;100.00
47897;BME280;39629;51.400;5.494;2022-12-29T11:23:35;100237.25;;;9.43;100.00
47897;BME280;39629;51.400;5.494;2022-12-29T11:28:40;100220.50;;;9.57;100.00
47897;BME280;39629;51.400;5.494;2022-12-29T11:33:42;100225.44;;;9.91;100.00
47897;BME280;39629;51.400;5.494;2022-12-29T11:38:47;100229.06;;;9.79;100.00
47897;BME280;39629;51.400;5.494;2022-12-29T11:43:52;100229.97;;;9.76;100.00
47897;BME280;39629;51.400;5.494;2022-12-29T11:48:56;100245.69;;;9.79;100.00
47897;BME280;39629;51.400;5.494;2022-12-29T11:54:01;100244.75;;;9.85;100.00
47897;BME280;39629;51.400;5.494;2022-12-29T11:59:25;100256.16;;;9.87;100.00
47897;BME280;39629;51.400;5.494;2022-12-29T12:04:37;100244.75;;;9.85;100.00
47897;BME280;39629;51.400;5.494;2022-12-29T12:09:43;100256.09;;;9.92;100.00
47897;BME280;39629;51.400;5.494;2022-12-29T12:14:53;100243.75;;;10.00;100.00
47897;BME280;39629;51.400;5.494;2022-12-29T12:20:22;100251.66;;;9.95;100.00
47897;BME280;39629;51.400;5.494;2022-12-29T12:25:31;100246.41;;;9.95;100.00
47897;BME280;39629;51.400;5.494;2022-12-29T12:30:40;100257.88;;;9.88;100.00
47897;BME280;39629;51.400;5.494;2022-12-29T12:35:45;100271.91;;;9.88;100.00
47897;BME280;39629;51.400;5.494;2022-12-29T12:40:59;100263.97;;;9.92;100.00
47897;BME280;39629;51.400;5.494;2022-12-29T12:46:19;100263.06;;;9.96;100.00
47897;BME280;39629;51.400;5.494;2022-12-29T12:51:33;100280.63;;;9.91;100.00
47897;BME280;39629;51.400;5.494;2022-12-29T12:57:06;100267.56;;;9.80;100.00
47897;BME280;39629;51.400;5.494;2022-12-29T13:02:26;100260.72;;;9.65;100.00
47897;BME280;39629;51.400;5.494;2022-12-29T13:07:37;100280.00;;;9.62;100.00
47897;BME280;39629;51.400;5.494;2022-12-29T13:12:48;100263.34;;;9.62;100.00
47897;BME280;39629;51.400;5.494;2022-12-29T13:18:00;100288.81;;;9.55;100.00
47897;BME280;39629;51.400;5.494;2022-12-29T13:23:10;100297.59;;;9.49;100.00
47897;BME280;39629;51.400;5.494;2022-12-29T13:28:17;100304.81;;;9.16;100.00
47897;BME280;39629;51.400;5.494;2022-12-29T13:33:28;100313.69;;;8.80;100.00
47897;BME280;39629;51.400;5.494;2022-12-29T13:38:36;100305.00;;;8.70;100.00
47897;BME280;39629;51.400;5.494;2022-12-29T13:43:41;100292.81;;;8.55;100.00
47897;BME280;39629;51.400;5.494;2022-12-29T13:48:47;100319.97;;;8.34;100.00
47897;BME280;39629;51.400;5.494;2022-12-29T13:54:00;100323.47;;;8.30;100.00
47897;BME280;39629;51.400;5.494;2022-12-29T13:59:11;100317.38;;;8.28;100.00
47897;BME280;39629;51.400;5.494;2022-12-29T14:04:24;100313.84;;;8.35;100.00
47897;BME280;39629;51.400;5.494;2022-12-29T14:09:40;100331.28;;;8.55;100.00
47897;BME280;39629;51.400;5.494;2022-12-29T14:14:42;100328.66;;;8.44;100.00
47897;BME280;39629;51.400;5.494;2022-12-29T14:19:46;100338.28;;;8.49;100.00
47897;BME280;39629;51.400;5.494;2022-12-29T14:24:48;100327.78;;;8.54;100.00
47897;BME280;39629;51.400;5.494;2022-12-29T14:29:51;100323.41;;;8.51;100.00
47897;BME280;39629;51.400;5.494;2022-12-29T14:34:55;100339.13;;;8.58;100.00
47897;BME280;39629;51.400;5.494;2022-12-29T14:40:05;100344.41;;;8.53;100.00
47897;BME280;39629;51.400;5.494;2022-12-29T14:45:26;100340.91;;;8.49;100.00
47897;BME280;39629;51.400;5.494;2022-12-29T14:50:40;100353.16;;;8.44;100.00
47897;BME280;39629;51.400;5.494;2022-12-29T14:55:44;100369.75;;;8.49;100.00
47897;BME280;39629;51.400;5.494;2022-12-29T15:00:47;100374.16;;;8.30;100.00
47897;BME280;39629;51.400;5.494;2022-12-29T15:05:51;100368.03;;;8.30;100.00
47897;BME280;39629;51.400;5.494;2022-12-29T15:10:56;100370.66;;;8.17;100.00
47897;BME280;39629;51.400;5.494;2022-12-29T15:15:58;100384.66;;;8.16;100.00
47897;BME280;39629;51.400;5.494;2022-12-29T15:21:02;100389.91;;;8.01;100.00
47897;BME280;39629;51.400;5.494;2022-12-29T15:26:06;100397.75;;;7.92;100.00
47897;BME280;39629;51.400;5.494;2022-12-29T15:31:11;100407.34;;;7.83;100.00
47897;BME280;39629;51.400;5.494;2022-12-29T15:36:20;100403.88;;;7.83;100.00
47897;BME280;39629;51.400;5.494;2022-12-29T15:41:29;100400.31;;;7.70;100.00
47897;BME280;39629;51.400;5.494;2022-12-29T15:46:54;100405.53;;;7.55;100.00
47897;BME280;39629;51.400;5.494;2022-12-29T15:51:57;100420.34;;;7.48;100.00
47897;BME280;39629;51.400;5.494;2022-12-29T15:56:59;100420.31;;;7.34;100.00
47897;BME280;39629;51.400;5.494;2022-12-29T16:02:01;100423.75;;;7.22;100.00
47897;BME280;39629;51.400;5.494;2022-12-29T16:07:06;100419.38;;;7.20;100.00
47897;BME280;39629;51.400;5.494;2022-12-29T16:12:24;100432.41;;;7.07;100.00
47897;BME280;39629;51.400;5.494;2022-12-29T16:17:29;100448.94;;;7.00;100.00
47897;BME280;39629;51.400;5.494;2022-12-29T16:22:33;100451.53;;;6.95;100.00
47897;BME280;39629;51.400;5.494;2022-12-29T16:27:37;100454.13;;;6.92;100.00
47897;BME280;39629;51.400;5.494;2022-12-29T16:32:45;100470.63;;;6.79;100.00
47897;BME280;39629;51.400;5.494;2022-12-29T16:38:07;100467.94;;;6.71;100.00
47897;BME280;39629;51.400;5.494;2022-12-29T16:43:20;100468.94;;;6.89;100.00
47897;BME280;39629;51.400;5.494;2022-12-29T16:48:24;100459.34;;;6.85;100.00
47897;BME280;39629;51.400;5.494;2022-12-29T16:53:32;100480.19;;;6.78;100.00
47897;BME280;39629;51.400;5.494;2022-12-29T16:58:35;100477.59;;;6.78;100.00
47897;BME280;39629;51.400;5.494;2022-12-29T17:03:39;100481.09;;;6.80;100.00
47897;BME280;39629;51.400;5.494;2022-12-29T17:08:44;100471.53;;;6.86;100.00
47897;BME280;39629;51.400;5.494;2022-12-29T17:13:46;100484.56;;;6.81;100.00
47897;BME280;39629;51.400;5.494;2022-12-29T17:18:48;100499.34;;;6.71;100.00
47897;BME280;39629;51.400;5.494;2022-12-29T17:23:50;100513.34;;;6.79;100.00
47897;BME280;39629;51.400;5.494;2022-12-29T17:28:52;100515.00;;;6.65;100.00
47897;BME280;39629;51.400;5.494;2022-12-29T17:33:54;100514.88;;;6.53;100.00
47897;BME280;39629;51.400;5.494;2022-12-29T17:38:57;100526.09;;;6.44;100.00
47897;BME280;39629;51.400;5.494;2022-12-29T17:44:00;100541.09;;;6.63;100.00
47897;BME280;39629;51.400;5.494;2022-12-29T17:49:02;100548.63;;;6.31;100.00
47897;BME280;39629;51.400;5.494;2022-12-29T17:54:04;100550.41;;;6.34;100.00
47897;BME280;39629;51.400;5.494;2022-12-29T17:59:10;100546.97;;;6.41;100.00
47897;BME280;39629;51.400;5.494;2022-12-29T18:04:15;100559.88;;;6.25;100.00
47897;BME280;39629;51.400;5.494;2022-12-29T18:09:18;100554.56;;;6.14;100.00
47897;BME280;39629;51.400;5.494;2022-12-29T18:14:21;100560.72;;;6.23;100.00
47897;BME280;39629;51.400;5.494;2022-12-29T18:19:24;100558.06;;;6.15;100.00
47897;BME280;39629;51.400;5.494;2022-12-29T18:24:27;100567.72;;;6.24;100.00
47897;BME280;39629;51.400;5.494;2022-12-29T18:29:29;100559.84;;;6.21;100.00
47897;BME280;39629;51.400;5.494;2022-12-29T18:34:30;100572.94;;;6.24;100.00
47897;BME280;39629;51.400;5.494;2022-12-29T18:39:33;100576.22;;;6.06;100.00
47897;BME280;39629;51.400;5.494;2022-12-29T18:44:36;100580.69;;;6.14;100.00
47897;BME280;39629;51.400;5.494;2022-12-29T18:49:38;100577.22;;;6.16;100.00
47897;BME280;39629;51.400;5.494;2022-12-29T18:54:41;100592.88;;;6.16;100.00
47897;BME280;39629;51.400;5.494;2022-12-29T18:59:42;100591.97;;;6.13;100.00
47897;BME280;39629;51.400;5.494;2022-12-29T19:04:44;100591.06;;;6.07;100.00
47897;BME280;39629;51.400;5.494;2022-12-29T19:09:47;100596.97;;;5.92;100.00
47897;BME280;39629;51.400;5.494;2022-12-29T19:14:48;100599.69;;;6.01;100.00
47897;BME280;39629;51.400;5.494;2022-12-29T19:19:50;100598.72;;;5.91;100.00
47897;BME280;39629;51.400;5.494;2022-12-29T19:24:53;100604.97;;;6.04;100.00
47897;BME280;39629;51.400;5.494;2022-12-29T19:29:54;100618.00;;;6.01;100.00
47897;BME280;39629;51.400;5.494;2022-12-29T19:34:56;100619.66;;;5.94;100.00
47897;BME280;39629;51.400;5.494;2022-12-29T19:39:59;100619.00;;;6.12;100.00
47897;BME280;39629;51.400;5.494;2022-12-29T19:45:01;100625.91;;;6.09;100.00
47897;BME280;39629;51.400;5.494;2022-12-29T19:50:04;100623.31;;;6.12;100.00
47897;BME280;39629;51.400;5.494;2022-12-29T19:55:09;100625.94;;;6.13;100.00
47897;BME280;39629;51.400;5.494;2022-12-29T20:00:13;100631.97;;;6.06;100.00
47897;BME280;39629;51.400;5.494;2022-12-29T20:05:15;100638.91;;;6.04;100.00
47897;BME280;39629;51.400;5.494;2022-12-29T20:10:19;100651.06;;;6.01;100.00
47897;BME280;39629;51.400;5.494;2022-12-29T20:15:21;100644.97;;;6.00;100.00
47897;BME280;39629;51.400;5.494;2022-12-29T20:20:23;100645.97;;;6.11;100.00
47897;BME280;39629;51.400;5.494;2022-12-29T20:25:27;100648.59;;;6.14;100.00
47897;BME280;39629;51.400;5.494;2022-12-29T20:30:29;100646.81;;;6.10;100.00
47897;BME280;39629;51.400;5.494;2022-12-29T20:35:31;100653.81;;;6.13;100.00
47897;BME280;39629;51.400;5.494;2022-12-29T20:40:34;100653.03;;;6.20;100.00
47897;BME280;39629;51.400;5.494;2022-12-29T20:45:36;100664.06;;;5.96;100.00
47897;BME280;39629;51.400;5.494;2022-12-29T20:50:37;100672.06;;;6.08;100.00
47897;BME280;39629;51.400;5.494;2022-12-29T20:55:40;100660.44;;;5.85;100.00
47897;BME280;39629;51.400;5.494;2022-12-29T21:00:42;100666.75;;;6.04;100.00
47897;BME280;39629;51.400;5.494;2022-12-29T21:05:44;100674.72;;;6.11;100.00
47897;BME280;39629;51.400;5.494;2022-12-29T21:10:47;100686.47;;;5.82;100.00
47897;BME280;39629;51.400;5.494;2022-12-29T21:15:54;100680.50;;;5.89;100.00
47897;BME280;39629;51.400;5.494;2022-12-29T21:20:56;100688.34;;;5.89;100.00
47897;BME280;39629;51.400;5.494;2022-12-29T21:26:00;100681.16;;;5.74;100.00
47897;BME280;39629;51.400;5.494;2022-12-29T21:31:06;100684.38;;;5.54;100.00
47897;BME280;39629;51.400;5.494;2022-12-29T21:36:08;100686.38;;;5.72;100.00
47897;BME280;39629;51.400;5.494;2022-12-29T21:41:13;100682.06;;;5.76;100.00
47897;BME280;39629;51.400;5.494;2022-12-29T21:46:15;100692.56;;;5.77;100.00
47897;BME280;39629;51.400;5.494;2022-12-29T21:51:17;100696.06;;;5.81;100.00
47897;BME280;39629;51.400;5.494;2022-12-29T21:56:38;100701.28;;;5.81;100.00
47897;BME280;39629;51.400;5.494;2022-12-29T22:01:39;100711.72;;;5.79;100.00
47897;BME280;39629;51.400;5.494;2022-12-29T22:06:59;100702.50;;;5.47;100.00
47897;BME280;39629;51.400;5.494;2022-12-29T22:12:20;100716.94;;;5.79;100.00
47897;BME280;39629;51.400;5.494;2022-12-29T22:17:42;100729.00;;;5.71;100.00
47897;BME280;39629;51.400;5.494;2022-12-29T22:22:45;100744.59;;;5.67;100.00
47897;BME280;39629;51.400;5.494;2022-12-29T22:27:49;100746.31;;;5.66;100.00
47897;BME280;39629;51.400;5.494;2022-12-29T22:32:50;100755.16;;;5.76;100.00
47897;BME280;39629;51.400;5.494;2022-12-29T22:37:52;100769.75;;;5.61;100.00
47897;BME280;39629;51.400;5.494;2022-12-29T22:42:55;100774.81;;;5.52;100.00
47897;BME280;39629;51.400;5.494;2022-12-29T22:47:57;100790.50;;;5.54;100.00
47897;BME280;39629;51.400;5.494;2022-12-29T22:52:58;100795.94;;;5.68;100.00
47897;BME280;39629;51.400;5.494;2022-12-29T22:58:02;100805.97;;;5.41;100.00
47897;BME280;39629;51.400;5.494;2022-12-29T23:03:03;100809.28;;;5.34;100.00
47897;BME280;39629;51.400;5.494;2022-12-29T23:08:05;100817.88;;;5.27;100.00
47897;BME280;39629;51.400;5.494;2022-12-29T23:13:08;100820.34;;;5.19;100.00
47897;BME280;39629;51.400;5.494;2022-12-29T23:18:09;100829.34;;;5.37;100.00
47897;BME280;39629;51.400;5.494;2022-12-29T23:23:11;100835.56;;;5.43;100.00
47897;BME280;39629;51.400;5.494;2022-12-29T23:28:14;100836.44;;;5.44;100.00
47897;BME280;39629;51.400;5.494;2022-12-29T23:33:16;100850.22;;;5.35;100.00
47897;BME280;39629;51.400;5.494;2022-12-29T23:38:17;100841.50;;;5.35;100.00
47897;BME280;39629;51.400;5.494;2022-12-29T23:43:20;100849.13;;;5.24;100.00
47897;BME280;39629;51.400;5.494;2022-12-29T23:48:22;100857.91;;;5.27;100.00
47897;BME280;39629;51.400;5.494;2022-12-29T23:53:23;100871.81;;;5.28;100.00
47897;BME280;39629;51.400;5.494;2022-12-29T23:58:27;100872.13;;;4.99;100.00
